createdAt,value
2019-02-05T00:05:01.664Z,19.10
2019-02-05T00:31:59.631Z,19.00
2019-02-05T00:45:06.955Z,19.10
2019-02-05T00:58:14.120Z,19.00
2019-02-05T01:11:21.302Z,19.00
2019-02-05T01:24:28.511Z,19.00
2019-02-05T01:37:52.284Z,19.00
2019-02-05T01:51:15.133Z,19.00
2019-02-05T02:04:37.992Z,19.00
2019-02-05T02:18:00.693Z,19.00
2019-02-05T02:31:23.519Z,19.00
2019-02-05T02:44:46.465Z,19.00
2019-02-05T02:58:09.309Z,18.90
2019-02-05T03:11:31.983Z,19.00
2019-02-05T03:24:54.902Z,18.90
2019-02-05T03:38:17.614Z,18.90
2019-02-05T03:51:40.586Z,18.90
2019-02-05T04:05:03.359Z,18.90
2019-02-05T04:18:26.169Z,18.90
2019-02-05T04:31:48.875Z,18.90
2019-02-05T04:45:11.674Z,18.90
2019-02-05T04:58:34.613Z,18.90
2019-02-05T05:11:57.351Z,18.90
2019-02-05T05:25:20.171Z,18.90
2019-02-05T05:38:43.065Z,16.30
2019-02-05T05:52:05.866Z,18.90
2019-02-05T06:05:28.568Z,19.80
2019-02-05T06:44:59.485Z,20.40
2019-02-05T06:58:06.681Z,20.10
2019-02-05T07:11:13.844Z,20.30
2019-02-05T07:24:21.270Z,20.40
2019-02-05T07:37:28.359Z,20.30
2019-02-05T08:03:38.094Z,20.40
2019-02-05T08:16:47.632Z,20.30
2019-02-05T08:29:52.740Z,20.40
2019-02-05T08:43:00.053Z,20.20
2019-02-05T08:56:07.377Z,20.10
2019-02-05T09:09:31.415Z,20.10
2019-02-05T09:22:54.255Z,20.00
2019-02-05T09:36:17.007Z,20.00
2019-02-05T09:49:39.998Z,19.90
2019-02-05T10:03:02.657Z,20.00
2019-02-05T10:16:25.486Z,20.10
2019-02-05T10:29:56.560Z,20.60
2019-02-05T10:43:11.106Z,20.30
2019-02-05T10:56:33.946Z,20.30
2019-02-05T11:09:56.711Z,20.40
2019-02-05T11:23:19.777Z,20.70
2019-02-05T11:36:42.509Z,20.80
2019-02-05T11:50:05.306Z,20.90
2019-02-05T12:03:28.001Z,20.70
2019-02-05T12:16:50.974Z,20.30
2019-02-05T12:30:13.615Z,20.10
2019-02-05T12:43:31.695Z,20.20
2019-02-05T12:56:39.005Z,20.50
2019-02-05T13:09:46.174Z,20.60
2019-02-05T13:22:53.349Z,20.70
2019-02-05T13:36:00.475Z,20.70
2019-02-05T13:49:07.732Z,20.50
2019-02-05T14:02:31.550Z,20.60
2019-02-05T14:28:56.001Z,20.70
2019-02-05T14:42:03.268Z,20.60
2019-02-05T14:55:10.478Z,20.50
2019-02-05T15:08:17.770Z,20.40
2019-02-05T15:21:25.099Z,20.60
2019-02-05T15:34:49.213Z,20.20
2019-02-05T15:48:12.577Z,20.20
2019-02-05T16:01:34.891Z,20.30
2019-02-05T16:14:57.797Z,20.40
2019-02-05T16:28:20.579Z,20.40
2019-02-05T16:41:43.502Z,20.40
2019-02-05T16:55:06.153Z,20.30
2019-02-05T17:08:29.078Z,20.20
2019-02-05T17:21:51.731Z,20.20
2019-02-05T17:35:14.613Z,20.00
2019-02-05T17:48:37.513Z,19.90
2019-02-05T18:02:00.272Z,20.00
2019-02-05T18:15:23.112Z,19.80
2019-02-05T18:28:45.992Z,19.80
2019-02-05T18:42:08.748Z,19.80
2019-02-05T18:55:31.424Z,20.00
2019-02-05T19:08:54.387Z,20.10
2019-02-05T19:22:17.265Z,19.90
2019-02-05T19:35:39.910Z,20.00
2019-02-05T19:49:02.890Z,19.90
2019-02-05T20:02:25.559Z,19.90
2019-02-05T20:28:50.270Z,20.00
2019-02-05T20:41:57.682Z,20.20
2019-02-05T20:55:05.141Z,20.10
2019-02-05T21:08:12.560Z,20.10
2019-02-05T21:21:19.919Z,20.10
2019-02-05T21:34:43.635Z,20.10
2019-02-05T21:48:06.322Z,19.50
2019-02-05T22:01:29.072Z,19.70
2019-02-05T22:14:51.862Z,19.60
2019-02-05T22:28:14.719Z,19.60
2019-02-05T22:41:37.412Z,19.50
2019-02-05T22:55:00.490Z,19.50
2019-02-05T23:08:23.009Z,19.50
2019-02-05T23:21:45.975Z,19.40
2019-02-05T23:48:10.356Z,19.40
